Malczyce, Poland
Current Conditions -  °F | °C
As of 11:30 PM on Wednesday 26 Nov 2014 (Local Time) from EPWR Reporting Station
Broken Clouds Broken Clouds  
Wind Chill: 33°   Ceiling: 4700
Heat Index: 37°   Visibility: 5mi
Dew Point: 34°   Wind: 6mph
Humidity: 87%   Direction: 120°ESE
Pressure: 30.18"   Gusts: NA
Location:  51.22°N, 16.48°E
Report Text: EPWR 262130Z 12005KT 8000 BKN047 03/01 Q1022
Loading
Personal Weather Stations






























Interactive Weather Map New forecast layout! Learn more

10-Day Weather Forecast

Advertisements
Track Severe Weather on mobile